Flight Track Log - Related Links

Times and Time Zones

All times are in EDT time to prevent confusion due to time zone crossing. See the N8957N flight status page for this flight to view local times or setup timezone preferences in your user account.

Time Position Orientation Groundspeed Altitude Reporting Facility
EDT Latitude Longitude Course Direction KTS MPH feet Rate Location/Type
Tue 11:31:42 AM 42.0164 -72.8258 238° Southwest 80 92 7,200  Level Boston Center
Tue 11:32:48 AM 42.0036 -72.8536 238° Southwest 82 94 7,800 517 Climbing Boston Center
Tue 11:34:13 AM 41.9847 -72.8897 235° Southwest 82 94 8,500 393 Climbing Boston Center
Tue 11:34:50 AM 41.9783 -72.9064 243° Southwest 85 98 8,600 184 Climbing Boston Center
Tue 11:35:51 AM 41.9594 -72.9369 230° Southwest 103 119 8,800 -49 Climbing Boston Center
Tue 11:36:52 AM 41.9428 -72.9789 242° Southwest 115 132 8,500 -129 Descending Boston Center
Tue 11:38:10 AM 41.9175 -73.0231 232° Southwest 112 129 8,500  Level Boston Center
Tue 11:39:05 AM 41.9006 -73.0508 231° Southwest 112 129 8,500  Level Boston Center
Tue 11:40:19 AM 41.8817 -73.0925 239° Southwest 114 131 8,500 45 Level Boston Center
Tue 11:41:19 AM 41.8647 -73.1231 233° Southwest 114 131 8,600  Climbing Boston Center
Tue 11:42:19 AM 41.8478 -73.1619 240° Southwest 114 131 8,500  Descending Boston Center
Tue 11:43:19 AM 41.8353 -73.1981 245° Southwest 119 137 8,600  Climbing Boston Center
Tue 11:44:19 AM 41.8161 -73.2367 236° Southwest 119 137 8,500  Descending Boston Center
Tue 11:45:19 AM 41.8014 -73.2672 237° Southwest 119 137 8,600 50 Climbing Boston Center
Tue 11:46:19 AM 41.7864 -73.2947 234° Southwest 119 137 8,600  Level Boston Center
Tue 11:47:19 AM 41.7675 -73.3419 242° Southwest 119 137 8,600  Level Boston Center
Tue 11:48:19 AM 41.7506 -73.3750 236° Southwest 119 137 8,600  Level Boston Center
Tue 11:49:19 AM 41.7314 -73.4136 236° Southwest 119 137 8,600 -50 Level Boston Center
Tue 11:50:19 AM 41.7186 -73.4469 243° Southwest 119 137 8,500  Descending Boston Center
Tue 11:51:19 AM 41.7017 -73.4883 241° Southwest 119 137 8,600  Climbing Boston Center
Tue 11:52:19 AM 41.6886 -73.5214 242° Southwest 119 137 8,500 -50 Descending Boston Center
Tue 11:53:19 AM 41.6717 -73.5600 240° Southwest 114 131 8,500 50 Level Boston Center
Tue 11:54:19 AM 41.6567 -73.5931 239° Southwest 114 131 8,600 50 Climbing Boston Center
Tue 11:55:19 AM 41.6356 -73.6317 234° Southwest 119 137 8,600 -50 Level Boston Center
Tue 11:56:19 AM 41.6206 -73.6647 239° Southwest 119 137 8,500 -50 Descending Boston Center
Tue 11:57:19 AM 41.6014 -73.7033 236° Southwest 119 137 8,500 50 Level Boston Center
Tue 11:58:19 AM 41.5886 -73.7336 241° Southwest 119 137 8,600 45 Climbing Boston Center
Tue 11:59:31 AM 41.5694 -73.7719 236° Southwest 119 137 8,600 -45 Level Boston Center
Tue 12:00:31 PM 41.5481 -73.8186 239° Southwest 119 137 8,500 -50 Descending Boston Center
Tue 12:01:31 PM 41.5328 -73.8544 240° Southwest 119 137 8,500 -50 Level Boston Center
Tue 12:02:31 PM 41.5158 -73.8900 238° Southwest 119 137 8,400  Descending Boston Center
Tue 12:03:31 PM 41.4967 -73.9256 234° Southwest 119 137 8,500 50 Climbing Boston Center
Tue 12:04:31 PM 41.4775 -73.9556 230° Southwest 119 137 8,500  Level Boston Center
Tue 12:05:31 PM 41.4539 -73.9939 231° Southwest 119 137 8,500  Level Boston Center
Tue 12:06:31 PM 41.4347 -74.0211 227° Southwest 119 137 8,500  Level Boston Center
Tue 12:07:31 PM 41.4072 -74.0564 224° Southwest 124 143 8,500  Level Boston Center
Tue 12:08:31 PM 41.3861 -74.0836 224° Southwest 124 143 8,500  Level Boston Center
Tue 12:09:27 PM 41.3667 -74.1167 232° Southwest 123 142 8,500  Level New York TRACON
Tue 12:10:33 PM 41.3333 -74.1333 201° Southwest 119 137 8,500  Level New York TRACON
Tue 12:11:27 PM 41.3167 -74.1667 236° Southwest 119 137 8,500  Level New York TRACON
Tue 12:12:27 PM 41.2833 -74.2000 217° Southwest 120 138 8,500  Level New York TRACON
Tue 12:13:33 PM 41.2500 -74.2333 217° Southwest 122 140 8,500  Level New York TRACON
Tue 12:14:33 PM 41.2333 -74.2500 217° Southwest 122 140 8,500  Level New York TRACON
Tue 12:15:27 PM 41.2000 -74.2833 217° Southwest 121 139 8,500  Level New York TRACON
Tue 12:16:33 PM 41.1667 -74.3000 201° Southwest 119 137 8,500  Level New York TRACON
Tue 12:17:33 PM 41.1500 -74.3333 236° Southwest 128 147 8,500 50 Level New York TRACON
Tue 12:18:33 PM 41.1167 -74.3667 217° Southwest 126 145 8,600  Climbing New York TRACON
Tue 12:19:33 PM 41.0833 -74.3833 201° Southwest 131 151 8,500 -50 Descending New York TRACON
Tue 12:20:33 PM 41.0500 -74.4000 201° Southwest 125 144 8,500 50 Level New York TRACON
Tue 12:21:33 PM 41.0333 -74.4333 236° Southwest 123 142 8,600 50 Climbing New York TRACON
Tue 12:22:33 PM 41.0000 -74.4500 201° Southwest 130 150 8,600 -53 Level New York TRACON
Tue 12:23:27 PM 40.9667 -74.4667 201° Southwest 129 148 8,500 -53 Descending New York TRACON
Tue 12:24:27 PM 40.9333 -74.5000 217° Southwest 124 143 8,500  Level New York TRACON
Tue 12:25:27 PM 40.9000 -74.5167 201° Southwest 127 146 8,500  Level New York TRACON
Tue 12:26:27 PM 40.8833 -74.5333 217° Southwest 127 146 8,500  Level New York TRACON
Tue 12:27:33 PM 40.8333 -74.5500 194° South 130 150 8,500  Level New York TRACON
Tue 12:28:27 PM 40.8000 -74.5667 201° Southwest 128 147 8,500 50 Level New York TRACON
Tue 12:29:33 PM 40.7667 -74.5833 201° Southwest 128 147 8,600  Climbing New York TRACON
Tue 12:30:27 PM 40.7333 -74.5833 180° South 131 151 8,500 -50 Descending New York TRACON
Tue 12:31:33 PM 40.7000 -74.6000 201° Southwest 125 144 8,500 -143 Level New York TRACON
Tue 12:32:33 PM 40.6667 -74.6167 201° Southwest 136 157 8,200 -450 Descending New York TRACON
Tue 12:33:33 PM 40.6167 -74.6333 194° South 151 174 7,600 -550 Descending New York TRACON
Tue 12:34:33 PM 40.5833 -74.6333 180° South 153 176 7,100 -700 Descending New York TRACON
Tue 12:35:33 PM 40.5333 -74.6500 194° South 159 183 6,200 -947 Descending New York TRACON
Tue 12:36:27 PM 40.5000 -74.6667 201° Southwest 159 183 5,300 -675 Descending New York TRACON
Tue 12:38:04 PM 40.4333 -74.6833 191° South 142 163 4,500 -276 Descending Philadelphia TRACON
Tue 12:38:59 PM 40.4000 -74.7000 201° Southwest 130 150 4,600  Climbing Philadelphia TRACON
Tue 12:39:59 PM 40.3667 -74.7000 180° South 128 147 4,500 -202 Descending Philadelphia TRACON
Tue 12:40:58 PM 40.3333 -74.7167 201° Southwest 132 152 4,200 -288 Descending Philadelphia TRACON
Tue 12:42:04 PM 40.2833 -74.7167 180° South 147 169 3,900 -333 Descending Philadelphia TRACON
Tue 12:43:04 PM 40.2500 -74.7333 201° Southwest 140 161 3,500 -150 Descending Philadelphia TRACON
Tue 12:44:04 PM 40.2167 -74.7333 180° South 131 151 3,600 52 Climbing Philadelphia TRACON
Tue 12:44:59 PM 40.1833 -74.7500 201° Southwest 128 147 3,600  Level Philadelphia TRACON
Tue 12:46:00 PM 40.1496 -74.7578 191° South  Level Estimated
Tue 12:53:00 PM 39.9333 -74.8000 192° South  Level FlightAware Approximate
Tue 12:54:00 PM 39.9343 -74.8072 192° South  Level Estimated
Tue 12:55:00 PM 39.9333 -74.8000 192° South  Level FlightAware Approximate
Tue 12:56:00 PM 39.9343 -74.8072 192° South  Level Estimated
Tue 12:57:00 PM 39.9333 -74.8000 192° South  Level FlightAware Approximate
Tue 12:58:00 PM 39.9343 -74.8072 192° South  Level Estimated
Tue 12:59:00 PM 39.9333 -74.8000 192° South  Level FlightAware Approximate
Tue 01:00:00 PM 39.9343 -74.8072 192° South  Level Estimated
Tue 01:01:00 PM 39.9333 -74.8000 192° South  Level FlightAware Approximate
Tue 01:02:00 PM 39.9343 -74.8072 192° South  Level Estimated
Tue 01:03:00 PM 39.9333 -74.8000 192° South  Level FlightAware Approximate
Tue 01:04:00 PM 39.9343 -74.8072 192° South  Level Estimated
Tue 01:05:00 PM 39.9333 -74.8000 192° South  Level FlightAware Approximate
Tue 01:06:00 PM 39.9343 -74.8072 192° South  Level Estimated
Tue 01:07:00 PM 39.9333 -74.8000 192° South  Level FlightAware Approximate
Tue 01:08:00 PM 39.9343 -74.8072 192° South  Level Estimated
Tue 01:09:00 PM 39.9333 -74.8000 192° South  Level FlightAware Approximate
Tue 01:10:00 PM 39.9343 -74.8072 192° South  Level Estimated
Tue 01:11:00 PM 39.9333 -74.8000 192° South  Level FlightAware Approximate
Tue 01:12:00 PM 39.9343 -74.8072 192° South  Level Estimated

Login

Don't have an account? Register now (free) for customized features, flight alerts, and more!